Time;durP1;ratioP1;P1;durP2;ratioP2;P2;SDS_P1;SDS_P2;PMS_P1;PMS_P2;Temp;Humidity;BMP_temperature;BMP_pressure;BME280_temperature;BME280_humidity;BME280_pressure;Samples;Min_cycle;Max_cycle;Signal;HPM_P1;HPM_P2
2022/07/10 00:01:38;;;;;;;1.77;1.65;;;21.60;64.50;;;;;;3968146;29;20146;-61
2022/07/10 00:04:00;;;;;;;0.00;0.00;;;21.60;64.60;;;;;;3957639;29;20055;-62
2022/07/10 00:06:22;;;;;;;0.30;0.30;;;21.60;64.70;;;;;;3971264;29;20061;-63
2022/07/10 00:08:44;;;;;;;0.00;0.00;;;21.60;64.90;;;;;;3971306;29;20198;-62
2022/07/10 00:11:07;;;;;;;0.00;0.00;;;21.60;64.90;;;;;;3956551;30;20112;-62
2022/07/10 00:13:29;;;;;;;0.00;0.00;;;21.60;64.90;;;;;;3942955;30;20152;-62
2022/07/10 00:15:52;;;;;;;0.00;0.00;;;21.60;64.90;;;;;;3956126;30;20062;-62
2022/07/10 00:18:14;;;;;;;0.30;0.30;;;21.60;64.80;;;;;;3963615;29;20055;-62
2022/07/10 00:20:37;;;;;;;0.10;0.10;;;21.60;65.50;;;;;;3970927;29;20089;-66
2022/07/10 00:22:58;;;;;;;0.00;0.00;;;21.60;64.80;;;;;;3971687;29;20062;-66
2022/07/10 00:25:22;;;;;;;0.10;0.10;;;21.60;64.60;;;;;;3971187;29;20051;-66
2022/07/10 00:27:44;;;;;;;0.00;0.00;;;21.50;64.50;;;;;;3956993;30;20522;-66
2022/07/10 00:30:07;;;;;;;0.00;0.00;;;21.50;64.40;;;;;;3956417;30;20136;-65
2022/07/10 00:32:30;;;;;;;0.00;0.00;;;21.50;64.50;;;;;;3956806;30;20142;-66
2022/07/10 00:34:53;;;;;;;0.00;0.00;;;21.50;64.30;;;;;;3942804;30;20063;-66
2022/07/10 00:37:15;;;;;;;0.00;0.00;;;21.50;64.50;;;;;;3959918;29;20150;-66
2022/07/10 00:39:37;;;;;;;0.00;0.00;;;21.50;64.90;;;;;;3956083;29;20484;-66
2022/07/10 00:42:08;;;;;;;0.10;0.10;;;21.50;65.00;;;;;;3956505;29;20535;-65
2022/07/10 00:44:30;;;;;;;0.38;0.32;;;21.50;65.40;;;;;;3942719;29;20062;-66
2022/07/10 00:46:52;;;;;;;0.63;0.63;;;21.50;65.70;;;;;;3955520;30;20510;-65
2022/07/10 00:49:15;;;;;;;1.25;1.15;;;21.50;65.70;;;;;;3956299;30;20075;-65
2022/07/10 00:51:38;;;;;;;0.00;0.00;;;21.50;65.70;;;;;;3942609;30;20055;-66
2022/07/10 00:54:01;;;;;;;0.00;0.00;;;21.50;65.70;;;;;;3942548;30;20451;-66
2022/07/10 00:56:26;;;;;;;0.00;0.00;;;21.50;65.70;;;;;;3956446;29;20128;-66
2022/07/10 00:58:48;;;;;;;0.10;0.10;;;21.50;65.80;;;;;;3956768;29;20062;-66
2022/07/10 01:01:10;;;;;;;0.00;0.00;;;21.50;65.80;;;;;;3955942;29;20130;-66
2022/07/10 01:03:32;;;;;;;0.00;0.00;;;21.50;65.90;;;;;;3956148;29;20047;-66
2022/07/10 01:05:56;;;;;;;0.10;0.10;;;21.50;65.90;;;;;;3956839;29;20055;-66
2022/07/10 01:08:18;;;;;;;0.10;0.10;;;21.50;66.00;;;;;;3956173;29;20063;-66
2022/07/10 01:10:40;;;;;;;0.35;0.13;;;21.50;66.00;;;;;;3955927;29;20051;-65
2022/07/10 01:13:03;;;;;;;0.00;0.00;;;21.50;65.90;;;;;;3956273;29;20583;-66
2022/07/10 01:15:26;;;;;;;0.65;0.65;;;21.50;66.10;;;;;;3955657;30;20059;-65
2022/07/10 01:17:48;;;;;;;0.00;0.00;;;21.50;66.10;;;;;;3956168;30;20098;-65
2022/07/10 01:20:11;;;;;;;0.00;0.00;;;21.50;66.20;;;;;;3941936;30;20048;-65
2022/07/10 01:22:36;;;;;;;0.00;0.00;;;21.50;66.10;;;;;;3955964;30;20043;-65
2022/07/10 01:24:58;;;;;;;0.00;0.00;;;21.50;66.00;;;;;;3968646;29;20066;-65
2022/07/10 01:27:20;;;;;;;0.00;0.00;;;21.50;66.10;;;;;;3970625;29;20480;-65
2022/07/10 01:29:43;;;;;;;0.00;0.00;;;21.50;66.00;;;;;;3969353;29;20063;-64
2022/07/10 01:32:05;;;;;;;0.00;0.00;;;21.50;65.90;;;;;;3973887;29;20138;-65
2022/07/10 01:34:28;;;;;;;0.00;0.00;;;21.40;65.90;;;;;;3958873;30;20070;-65
2022/07/10 01:36:50;;;;;;;0.00;0.00;;;21.40;66.10;;;;;;3959141;30;20051;-65
2022/07/10 01:39:14;;;;;;;0.00;0.00;;;21.40;66.20;;;;;;3958658;30;20051;-65
2022/07/10 01:41:36;;;;;;;0.00;0.00;;;21.40;66.20;;;;;;3971973;29;20145;-65
2022/07/10 01:43:58;;;;;;;0.00;0.00;;;21.40;66.30;;;;;;3973787;29;20593;-64
2022/07/10 01:46:20;;;;;;;0.15;0.15;;;21.40;67.20;;;;;;3959756;29;20068;-65
2022/07/10 01:48:43;;;;;;;0.00;0.00;;;21.40;66.40;;;;;;3973515;29;20086;-65
2022/07/10 01:51:05;;;;;;;0.00;0.00;;;21.40;66.20;;;;;;3963293;29;20115;-65
2022/07/10 01:53:27;;;;;;;0.00;0.00;;;21.40;66.40;;;;;;3958551;29;20148;-65
2022/07/10 01:55:51;;;;;;;0.22;0.22;;;21.40;66.40;;;;;;3958682;29;20047;-65
2022/07/10 01:58:13;;;;;;;0.45;0.45;;;21.40;66.40;;;;;;3958675;30;20130;-65
2022/07/10 02:00:36;;;;;;;0.00;0.00;;;21.40;66.40;;;;;;3963586;29;20086;-65
2022/07/10 02:05:38;;;;;;;0.00;0.00;;;21.30;66.50;;;;;;3973571;29;20120;-65
2022/07/10 02:08:00;;;;;;;0.00;0.00;;;21.30;66.50;;;;;;3973462;29;20067;-65
2022/07/10 02:10:22;;;;;;;0.00;0.00;;;21.30;66.60;;;;;;3970060;29;20217;-65
2022/07/10 02:12:45;;;;;;;0.00;0.00;;;21.30;66.60;;;;;;3958165;29;20058;-64
2022/07/10 02:15:08;;;;;;;0.00;0.00;;;21.30;66.60;;;;;;3957590;29;20483;-65
2022/07/10 02:17:31;;;;;;;0.00;0.00;;;21.30;66.60;;;;;;3972327;29;20070;-65
2022/07/10 02:19:53;;;;;;;0.00;0.00;;;21.30;66.60;;;;;;3958428;30;20059;-61
2022/07/10 02:22:15;;;;;;;0.00;0.00;;;21.30;66.40;;;;;;3958324;30;20519;-62
2022/07/10 02:24:37;;;;;;;0.65;0.65;;;21.30;66.20;;;;;;3944638;30;20705;-62
2022/07/10 02:26:59;;;;;;;0.00;0.00;;;21.30;65.60;;;;;;3957936;30;20128;-62
2022/07/10 02:29:23;;;;;;;0.05;0.05;;;21.30;66.00;;;;;;3961530;29;20126;-61
2022/07/10 02:31:45;;;;;;;0.00;0.00;;;21.30;66.10;;;;;;3957945;29;20063;-61
2022/07/10 02:34:07;;;;;;;0.00;0.00;;;21.30;66.30;;;;;;3958361;29;20055;-62
2022/07/10 02:36:30;;;;;;;0.00;0.00;;;21.20;66.20;;;;;;3957878;29;20428;-64
2022/07/10 02:38:51;;;;;;;0.00;0.00;;;21.20;66.30;;;;;;3966677;29;20137;-61
2022/07/10 02:41:14;;;;;;;0.00;0.00;;;21.20;66.10;;;;;;3959038;29;20043;-65
2022/07/10 02:43:36;;;;;;;0.00;0.00;;;21.20;66.30;;;;;;3965931;29;20113;-63
2022/07/10 02:45:59;;;;;;;0.00;0.00;;;21.20;66.10;;;;;;3959216;29;20079;-64
2022/07/10 02:48:21;;;;;;;0.00;0.00;;;21.20;65.70;;;;;;3968952;29;20140;-64
2022/07/10 02:50:43;;;;;;;0.00;0.00;;;21.20;66.20;;;;;;3967788;29;20047;-63
2022/07/10 02:53:05;;;;;;;0.00;0.00;;;21.20;66.30;;;;;;3972689;29;20115;-63
2022/07/10 02:55:28;;;;;;;0.00;0.00;;;21.20;66.30;;;;;;3959213;29;20063;-64
2022/07/10 02:57:49;;;;;;;0.00;0.00;;;21.20;66.50;;;;;;3970066;29;20476;-64
2022/07/10 03:00:12;;;;;;;0.47;0.47;;;21.20;66.10;;;;;;3957961;29;20108;-64
2022/07/10 03:02:36;;;;;;;0.00;0.00;;;21.20;66.30;;;;;;3957634;29;20069;-64
2022/07/10 03:04:58;;;;;;;0.00;0.00;;;21.20;66.40;;;;;;3958178;29;20134;-64
2022/07/10 03:07:20;;;;;;;0.00;0.00;;;21.20;66.00;;;;;;3944210;29;20415;-64
2022/07/10 03:09:42;;;;;;;0.00;0.00;;;21.20;66.00;;;;;;3957219;30;20051;-64
2022/07/10 03:12:05;;;;;;;0.00;0.00;;;21.20;66.10;;;;;;3957633;30;20134;-64
2022/07/10 03:14:27;;;;;;;0.00;0.00;;;21.20;66.30;;;;;;3944249;30;20062;-63
2022/07/10 03:16:49;;;;;;;0.00;0.00;;;21.20;66.30;;;;;;3956639;30;20066;-64
2022/07/10 03:19:13;;;;;;;0.00;0.00;;;21.20;66.30;;;;;;3959909;29;20491;-63
2022/07/10 03:21:35;;;;;;;0.00;0.00;;;21.10;66.30;;;;;;3943330;29;20117;-64
2022/07/10 03:23:58;;;;;;;0.00;0.00;;;21.10;66.30;;;;;;3957737;29;20055;-63
2022/07/10 03:26:20;;;;;;;0.00;0.00;;;21.10;66.40;;;;;;3957454;29;20055;-64
2022/07/10 03:28:42;;;;;;;0.05;0.05;;;21.10;67.20;;;;;;3967553;29;20061;-63
2022/07/10 03:31:05;;;;;;;0.63;0.35;;;21.10;66.40;;;;;;3972142;29;20392;-63
2022/07/10 03:33:27;;;;;;;0.00;0.00;;;21.10;66.40;;;;;;3972366;29;20055;-63
2022/07/10 03:35:50;;;;;;;0.00;0.00;;;21.10;66.40;;;;;;3958148;29;20059;-64
2022/07/10 03:38:12;;;;;;;0.00;0.00;;;21.10;66.40;;;;;;3963985;29;20070;-63
2022/07/10 03:40:35;;;;;;;0.38;0.38;;;21.10;66.40;;;;;;3957267;29;20052;-63
2022/07/10 03:42:57;;;;;;;0.00;0.00;;;21.10;66.10;;;;;;3943856;29;20051;-64
2022/07/10 03:45:19;;;;;;;0.00;0.00;;;21.10;66.30;;;;;;3957094;29;20097;-63
2022/07/10 03:47:41;;;;;;;0.00;0.00;;;21.10;66.40;;;;;;3961896;29;20051;-65
2022/07/10 03:50:04;;;;;;;0.00;0.00;;;21.10;66.50;;;;;;3971827;29;20067;-65
2022/07/10 03:52:27;;;;;;;0.00;0.00;;;21.10;67.40;;;;;;3971637;29;20062;-65
2022/07/10 03:54:49;;;;;;;0.00;0.00;;;21.10;66.50;;;;;;3971410;29;20064;-64
2022/07/10 03:59:49;;;;;;;0.00;0.00;;;21.10;66.40;;;;;;3971654;29;20489;-66
2022/07/10 04:02:12;;;;;;;0.00;0.00;;;21.10;66.40;;;;;;3971726;29;20445;-65
2022/07/10 04:04:35;;;;;;;0.00;0.00;;;21.10;66.50;;;;;;3972086;29;20055;-65
2022/07/10 04:06:57;;;;;;;0.00;0.00;;;21.10;66.30;;;;;;3970760;29;20497;-66
2022/07/10 04:09:20;;;;;;;0.00;0.00;;;21.10;66.40;;;;;;3957018;29;20708;-66
2022/07/10 04:11:42;;;;;;;0.00;0.00;;;21.10;66.40;;;;;;3956410;29;20055;-65
2022/07/10 04:14:05;;;;;;;0.00;0.00;;;21.10;67.20;;;;;;3943122;29;20579;-66
2022/07/10 04:16:27;;;;;;;0.00;0.00;;;21.10;66.30;;;;;;3956390;29;20059;-66
2022/07/10 04:18:49;;;;;;;0.00;0.00;;;21.10;66.30;;;;;;3965160;29;20069;-67
2022/07/10 04:21:12;;;;;;;0.00;0.00;;;21.10;66.00;;;;;;3970920;29;20054;-65
2022/07/10 04:23:33;;;;;;;0.00;0.00;;;21.10;66.00;;;;;;3971881;29;20147;-65
2022/07/10 04:25:57;;;;;;;0.00;0.00;;;21.10;66.00;;;;;;3971478;29;20047;-65
2022/07/10 04:28:19;;;;;;;0.00;0.00;;;21.10;66.00;;;;;;3958349;29;20078;-66
2022/07/10 04:30:41;;;;;;;0.00;0.00;;;21.10;66.10;;;;;;3942708;29;20059;-66
2022/07/10 04:33:04;;;;;;;0.00;0.00;;;21.10;66.20;;;;;;3956623;29;20440;-66
2022/07/10 04:35:25;;;;;;;0.00;0.00;;;21.10;66.30;;;;;;3957406;29;20063;-66
2022/07/10 04:37:47;;;;;;;0.00;0.00;;;21.10;66.20;;;;;;3971603;29;20070;-66
2022/07/10 04:40:11;;;;;;;0.20;0.20;;;21.10;67.40;;;;;;3971340;29;20146;-66
2022/07/10 04:42:34;;;;;;;0.00;0.00;;;21.10;66.10;;;;;;3971001;29;20057;-66
2022/07/10 04:44:56;;;;;;;0.00;0.00;;;21.10;66.20;;;;;;3957171;29;20062;-65
2022/07/10 04:47:19;;;;;;;0.00;0.00;;;21.10;66.10;;;;;;3956605;30;20051;-66
2022/07/10 04:49:41;;;;;;;0.00;0.00;;;21.10;66.10;;;;;;3955939;30;20202;-66
2022/07/10 04:52:03;;;;;;;0.00;0.00;;;21.10;65.90;;;;;;3956545;30;20132;-66
2022/07/10 04:54:25;;;;;;;0.30;0.30;;;21.10;66.30;;;;;;3956022;30;20598;-66
2022/07/10 04:56:47;;;;;;;0.00;0.00;;;21.00;66.10;;;;;;3969739;29;20066;-66
2022/07/10 04:59:11;;;;;;;0.00;0.00;;;21.00;66.20;;;;;;3970703;29;20129;-66
2022/07/10 05:01:33;;;;;;;0.00;0.00;;;21.00;66.20;;;;;;3971128;29;20055;-66
2022/07/10 05:03:55;;;;;;;0.00;0.00;;;21.00;66.10;;;;;;3970512;29;20090;-66
2022/07/10 05:06:17;;;;;;;0.00;0.00;;;21.00;66.30;;;;;;3969237;29;20049;-66
2022/07/10 05:08:39;;;;;;;0.00;0.00;;;21.00;66.20;;;;;;3948280;29;20157;-66
2022/07/10 05:11:01;;;;;;;0.00;0.00;;;21.00;66.20;;;;;;3970095;29;20650;-66
2022/07/10 05:13:23;;;;;;;0.00;0.00;;;21.00;66.30;;;;;;3970884;29;20078;-66
2022/07/10 05:15:48;;;;;;;0.00;0.00;;;21.00;66.30;;;;;;3962269;29;20094;-66
2022/07/10 05:18:10;;;;;;;0.03;0.03;;;21.00;66.20;;;;;;3956347;29;20136;-65
2022/07/10 05:20:33;;;;;;;0.00;0.00;;;21.00;66.00;;;;;;3956077;29;20051;-66
2022/07/10 05:22:56;;;;;;;0.10;0.10;;;21.00;66.40;;;;;;3956142;29;20067;-66
2022/07/10 05:25:18;;;;;;;0.52;0.52;;;20.90;66.00;;;;;;3959731;29;20055;-66
2022/07/10 05:27:40;;;;;;;0.45;0.45;;;21.00;66.10;;;;;;3970797;29;20054;-66
2022/07/10 05:30:02;;;;;;;0.00;0.00;;;20.90;65.90;;;;;;3970572;29;20161;-65
2022/07/10 05:32:26;;;;;;;0.00;0.00;;;20.90;66.10;;;;;;3970872;29;20825;-65
2022/07/10 05:34:48;;;;;;;0.00;0.00;;;20.90;66.10;;;;;;3967485;29;20070;-66
2022/07/10 05:37:10;;;;;;;0.00;0.00;;;20.90;65.90;;;;;;3956105;29;20055;-66
2022/07/10 05:39:32;;;;;;;0.00;0.00;;;20.90;66.70;;;;;;3955926;29;20052;-66
2022/07/10 05:41:55;;;;;;;0.10;0.10;;;20.90;65.60;;;;;;3956127;29;20526;-66
2022/07/10 05:44:19;;;;;;;0.00;0.00;;;20.90;65.70;;;;;;3951943;30;20472;-66
2022/07/10 05:46:41;;;;;;;3.33;1.13;;;20.90;65.50;;;;;;3955916;30;20124;-66
2022/07/10 05:49:05;;;;;;;0.00;0.00;;;20.90;66.10;;;;;;3955659;30;20062;-66
2022/07/10 05:51:27;;;;;;;0.00;0.00;;;20.90;66.50;;;;;;3956039;30;20062;-65
2022/07/10 05:53:56;;;;;;;0.00;0.00;;;20.90;66.40;;;;;;3947123;30;20142;-65
2022/07/10 05:56:18;;;;;;;0.00;0.00;;;20.90;66.70;;;;;;3941388;30;20113;-67
2022/07/10 05:58:40;;;;;;;0.00;0.00;;;20.90;67.00;;;;;;3939743;30;20163;-67
2022/07/10 06:01:03;;;;;;;0.00;0.00;;;20.90;67.10;;;;;;3941159;30;20491;-67
2022/07/10 06:03:25;;;;;;;0.00;0.00;;;20.90;68.10;;;;;;3933923;30;20061;-67
2022/07/10 06:05:48;;;;;;;0.00;0.00;;;20.90;67.10;;;;;;3948585;30;20052;-67
2022/07/10 06:08:12;;;;;;;0.00;0.00;;;20.90;66.80;;;;;;3955450;30;20048;-66
2022/07/10 06:10:34;;;;;;;0.00;0.00;;;20.90;67.00;;;;;;3955823;30;20411;-67
2022/07/10 06:12:56;;;;;;;0.00;0.00;;;20.90;67.00;;;;;;3942149;30;20056;-66
2022/07/10 06:15:18;;;;;;;0.00;0.00;;;20.90;67.20;;;;;;3941072;30;20055;-67
2022/07/10 06:17:40;;;;;;;0.00;0.00;;;20.90;67.10;;;;;;3941652;30;20109;-66
2022/07/10 06:20:02;;;;;;;0.00;0.00;;;21.00;67.10;;;;;;3957316;30;20061;-66
2022/07/10 06:22:32;;;;;;;0.00;0.00;;;20.90;67.10;;;;;;3957403;30;20070;-66
2022/07/10 06:24:54;;;;;;;0.00;0.00;;;20.90;67.20;;;;;;3958426;30;20112;-66
2022/07/10 06:27:16;;;;;;;0.40;0.40;;;20.90;67.30;;;;;;3957838;30;20127;-65
2022/07/10 06:29:38;;;;;;;3.63;2.25;;;20.90;67.40;;;;;;3958361;30;20058;-66
2022/07/10 06:32:00;;;;;;;0.00;0.00;;;20.90;67.40;;;;;;3956095;30;20065;-65
2022/07/10 06:34:22;;;;;;;0.00;0.00;;;20.90;68.30;;;;;;3944802;30;20152;-66
2022/07/10 06:36:44;;;;;;;0.90;0.38;;;20.90;67.60;;;;;;3957883;30;20090;-65
2022/07/10 06:39:07;;;;;;;0.00;0.00;;;21.00;70.30;;;;;;3958362;30;20035;-66
2022/07/10 06:41:29;;;;;;;0.10;0.10;;;21.00;75.00;;;;;;3942950;30;20063;-66
2022/07/10 06:43:51;;;;;;;0.00;0.00;;;21.00;74.80;;;;;;3957437;30;20070;-66
2022/07/10 06:46:14;;;;;;;0.00;0.00;;;21.00;76.30;;;;;;3957614;30;20047;-66
2022/07/10 06:48:39;;;;;;;0.32;0.32;;;21.00;74.60;;;;;;3958824;29;20059;-62
2022/07/10 06:51:01;;;;;;;0.00;0.00;;;21.00;73.20;;;;;;3970698;29;20513;-64
2022/07/10 06:53:26;;;;;;;0.85;0.85;;;21.00;73.70;;;;;;3972876;29;20505;-63
2022/07/10 06:55:49;;;;;;;0.00;0.00;;;21.00;73.60;;;;;;3972568;29;20061;-63
2022/07/10 06:58:11;;;;;;;0.00;0.00;;;21.00;73.30;;;;;;3964266;29;20361;-63
2022/07/10 07:00:34;;;;;;;29.77;1.13;;;21.00;72.40;;;;;;3957785;29;20058;-64
2022/07/10 07:02:56;;;;;;;0.00;0.00;;;21.00;71.60;;;;;;3958099;29;20062;-63
2022/07/10 07:05:18;;;;;;;0.00;0.00;;;21.00;71.40;;;;;;3957576;29;20062;-64
2022/07/10 07:07:40;;;;;;;0.00;0.00;;;21.00;71.20;;;;;;3965491;29;20567;-67
2022/07/10 07:10:03;;;;;;;0.10;0.10;;;21.00;71.30;;;;;;3972322;29;20058;-67
2022/07/10 07:12:27;;;;;;;6.72;0.43;;;21.00;71.40;;;;;;3972875;29;20142;-67
2022/07/10 07:14:49;;;;;;;0.00;0.00;;;20.90;71.30;;;;;;3970702;29;20058;-67
2022/07/10 07:17:13;;;;;;;0.00;0.00;;;21.00;71.30;;;;;;3962432;29;20074;-67
2022/07/10 07:24:51;;;;;;;0.00;0.00;;;20.90;71.30;;;;;;3959236;29;20393;-67
2022/07/10 07:27:13;;;;;;;0.00;0.00;;;20.90;71.20;;;;;;3956444;30;20404;-66
2022/07/10 07:29:37;;;;;;;0.00;0.00;;;20.90;71.10;;;;;;3963407;29;20058;-66
2022/07/10 07:31:59;;;;;;;0.00;0.00;;;21.00;71.00;;;;;;3963772;29;20196;-66
2022/07/10 07:34:21;;;;;;;0.00;0.00;;;20.90;70.90;;;;;;3964836;29;20059;-66
2022/07/10 07:36:43;;;;;;;0.22;0.22;;;20.90;71.00;;;;;;3958296;29;20109;-66
2022/07/10 07:39:05;;;;;;;0.00;0.00;;;20.90;70.90;;;;;;3965090;29;20054;-66
2022/07/10 07:41:27;;;;;;;0.00;0.00;;;21.00;71.00;;;;;;3967469;29;20058;-66
2022/07/10 07:43:50;;;;;;;0.22;0.22;;;20.90;70.80;;;;;;3971520;29;20054;-66
2022/07/10 07:46:13;;;;;;;0.00;0.00;;;20.90;70.90;;;;;;3956072;30;20069;-66
2022/07/10 07:48:35;;;;;;;0.28;0.28;;;21.00;70.90;;;;;;3949508;29;20116;-66
2022/07/10 07:50:57;;;;;;;0.00;0.00;;;21.00;70.90;;;;;;3971622;29;20475;-66
2022/07/10 07:53:20;;;;;;;0.00;0.00;;;21.00;70.60;;;;;;3971831;29;20127;-66
2022/07/10 07:55:42;;;;;;;0.10;0.10;;;21.00;70.80;;;;;;3965728;29;20063;-66
2022/07/10 07:58:04;;;;;;;0.00;0.00;;;21.00;70.80;;;;;;3956685;29;20051;-66
2022/07/10 08:00:28;;;;;;;0.00;0.00;;;21.00;70.60;;;;;;3957141;29;20083;-66
2022/07/10 08:02:52;;;;;;;3.60;1.65;;;21.10;70.50;;;;;;3957549;29;20214;-66
2022/07/10 08:05:15;;;;;;;0.00;0.00;;;21.00;70.50;;;;;;3967443;29;20127;-67
2022/07/10 08:07:38;;;;;;;0.00;0.00;;;21.00;70.40;;;;;;3956776;29;20108;-66
2022/07/10 08:10:00;;;;;;;0.00;0.00;;;21.10;70.00;;;;;;3956939;29;20055;-66
2022/07/10 08:12:23;;;;;;;0.00;0.00;;;21.10;69.90;;;;;;3957899;29;20476;-64
2022/07/10 08:14:45;;;;;;;0.00;0.00;;;21.00;69.60;;;;;;3943411;29;20120;-63
2022/07/10 08:17:08;;;;;;;0.00;0.00;;;21.00;69.60;;;;;;3956111;29;20062;-64
2022/07/10 08:19:31;;;;;;;0.00;0.00;;;21.00;69.70;;;;;;3957092;29;20086;-63
2022/07/10 08:21:53;;;;;;;0.00;0.00;;;21.00;69.60;;;;;;3959174;29;20061;-63
2022/07/10 08:24:16;;;;;;;0.00;0.00;;;21.00;69.70;;;;;;3971425;29;20123;-64
2022/07/10 08:26:38;;;;;;;0.00;0.00;;;21.00;70.00;;;;;;3971125;29;20065;-63
2022/07/10 08:29:00;;;;;;;0.00;0.00;;;21.00;70.90;;;;;;3971545;29;20057;-63
2022/07/10 08:31:22;;;;;;;0.00;0.00;;;21.00;70.00;;;;;;3969845;29;20131;-64
2022/07/10 08:33:45;;;;;;;0.00;0.00;;;21.00;70.10;;;;;;3971534;29;20150;-64
2022/07/10 08:36:09;;;;;;;0.55;0.55;;;21.00;70.40;;;;;;3957023;29;20108;-64
2022/07/10 08:38:51;;;;;;;0.00;0.00;;;21.00;70.80;;;;;;3961102;29;20043;-63
2022/07/10 08:41:14;;;;;;;0.00;0.00;;;21.00;71.10;;;;;;3957055;29;20132;-64
2022/07/10 08:43:36;;;;;;;0.00;0.00;;;21.00;71.30;;;;;;3956700;29;20071;-64
2022/07/10 08:45:59;;;;;;;0.00;0.00;;;21.00;71.70;;;;;;3956125;29;20480;-64
2022/07/10 08:48:24;;;;;;;0.00;0.00;;;21.00;71.90;;;;;;3955996;30;20055;-63
2022/07/10 08:50:48;;;;;;;0.00;0.00;;;21.00;72.00;;;;;;3956880;29;20373;-63
2022/07/10 08:53:17;;;;;;;0.00;0.00;;;21.00;72.50;;;;;;3956328;29;20139;-63
2022/07/10 08:55:39;;;;;;;0.20;0.20;;;21.00;72.30;;;;;;3956071;29;20134;-62
2022/07/10 08:58:04;;;;;;;0.00;0.00;;;21.00;72.50;;;;;;3956441;29;20112;-63
2022/07/10 09:00:26;;;;;;;0.00;0.00;;;21.00;72.50;;;;;;3969825;29;20081;-62
2022/07/10 09:02:48;;;;;;;0.00;0.00;;;21.00;72.70;;;;;;3970799;29;20063;-62
2022/07/10 09:05:10;;;;;;;0.32;0.30;;;21.00;72.70;;;;;;3971156;29;20179;-63
2022/07/10 09:07:36;;;;;;;0.00;0.00;;;21.00;72.70;;;;;;3957163;29;20071;-63
2022/07/10 09:09:59;;;;;;;0.00;0.00;;;21.00;73.50;;;;;;3964490;29;20079;-63
2022/07/10 09:12:22;;;;;;;0.10;0.10;;;21.10;72.60;;;;;;3955799;29;20051;-63
2022/07/10 09:14:44;;;;;;;0.00;0.00;;;21.10;72.60;;;;;;3967508;29;20842;-64
2022/07/10 09:17:06;;;;;;;0.00;0.00;;;21.10;72.50;;;;;;3970480;29;20171;-63
2022/07/10 09:19:29;;;;;;;0.00;0.00;;;21.10;72.50;;;;;;3969133;29;20066;-64
2022/07/10 09:21:52;;;;;;;0.00;0.00;;;21.10;72.60;;;;;;3970596;29;20423;-63
2022/07/10 09:24:16;;;;;;;0.00;0.00;;;21.10;72.60;;;;;;3970780;29;20051;-63
2022/07/10 09:26:42;;;;;;;0.00;0.00;;;21.10;72.60;;;;;;3956770;29;20544;-63
2022/07/10 09:29:08;;;;;;;0.00;0.00;;;21.20;72.80;;;;;;3968972;29;20117;-63
2022/07/10 09:31:49;;;;;;;0.52;0.52;;;21.20;72.70;;;;;;3956978;29;20911;-63
2022/07/10 09:34:11;;;;;;;0.93;0.93;;;21.20;72.70;;;;;;3970823;29;20510;-64
2022/07/10 09:36:33;;;;;;;0.40;0.40;;;21.20;72.70;;;;;;3970679;29;20391;-64
2022/07/10 09:39:00;;;;;;;0.15;0.15;;;21.20;72.50;;;;;;3957709;29;20059;-63
2022/07/10 09:41:24;;;;;;;3.72;2.20;;;21.20;72.40;;;;;;3970439;29;20047;-64
2022/07/10 09:43:49;;;;;;;0.85;0.85;;;21.20;72.40;;;;;;3952109;29;20134;-63
2022/07/10 09:46:11;;;;;;;1.27;0.98;;;21.20;72.40;;;;;;3970646;29;20347;-63
2022/07/10 09:48:33;;;;;;;0.60;0.60;;;21.20;72.30;;;;;;3962095;29;20653;-63
2022/07/10 09:50:55;;;;;;;4.95;0.98;;;21.20;72.00;;;;;;3956328;29;20422;-63
2022/07/10 09:53:17;;;;;;;0.82;0.82;;;21.20;71.80;;;;;;3958534;29;20053;-63
2022/07/10 09:55:40;;;;;;;0.10;0.10;;;21.20;71.90;;;;;;3945003;29;20062;-63
2022/07/10 09:58:05;;;;;;;0.20;0.20;;;21.20;72.10;;;;;;3970762;29;20156;-63
2022/07/10 10:00:30;;;;;;;7.18;1.88;;;21.20;72.20;;;;;;3973743;29;20564;-64
2022/07/10 10:02:58;;;;;;;0.25;0.25;;;21.20;72.30;;;;;;3972916;29;20047;-64
2022/07/10 10:05:21;;;;;;;0.35;0.35;;;21.20;72.30;;;;;;3973284;29;20169;-64
2022/07/10 10:07:43;;;;;;;0.00;0.00;;;21.20;72.30;;;;;;3971146;29;20831;-64
2022/07/10 10:10:12;;;;;;;1.00;1.00;;;21.20;72.40;;;;;;3968947;29;20415;-64
2022/07/10 10:12:46;;;;;;;5.40;1.75;;;21.20;72.20;;;;;;3960186;29;20062;-64
2022/07/10 10:15:11;;;;;;;0.10;0.10;;;21.20;72.30;;;;;;3954856;29;20108;-63
2022/07/10 10:17:36;;;;;;;0.10;0.10;;;21.20;72.50;;;;;;3958379;30;20059;-63
2022/07/10 10:22:41;;;;;;;0.22;0.22;;;21.20;73.10;;;;;;3959846;29;20048;-68
2022/07/10 10:25:06;;;;;;;0.00;0.00;;;21.20;73.30;;;;;;3947033;30;20058;-67
2022/07/10 10:27:29;;;;;;;0.00;0.00;;;21.20;73.90;;;;;;3969359;29;20074;-68
2022/07/10 10:29:52;;;;;;;0.00;0.00;;;21.20;74.50;;;;;;3973019;29;20070;-67
2022/07/10 10:32:14;;;;;;;0.00;0.00;;;21.20;75.00;;;;;;3958086;30;20058;-68
2022/07/10 10:34:42;;;;;;;0.08;0.08;;;21.20;75.00;;;;;;3958189;30;20124;-69
2022/07/10 10:37:07;;;;;;;0.00;0.00;;;21.20;75.10;;;;;;3958258;30;20521;-68
2022/07/10 10:39:29;;;;;;;0.30;0.30;;;21.20;75.10;;;;;;3968363;29;20062;-68
2022/07/10 10:41:52;;;;;;;0.10;0.10;;;21.20;74.90;;;;;;3958327;29;20059;-68
2022/07/10 10:44:25;;;;;;;0.08;0.08;;;21.20;74.80;;;;;;3957644;30;20047;-69
2022/07/10 10:47:00;;;;;;;0.00;0.00;;;21.10;74.80;;;;;;3962527;29;20058;-68
2022/07/10 10:49:24;;;;;;;0.43;0.43;;;21.20;75.00;;;;;;3971287;29;20508;-68
2022/07/10 10:52:01;;;;;;;0.43;0.43;;;21.20;75.20;;;;;;3962027;29;20046;-69
2022/07/10 10:54:23;;;;;;;0.47;0.47;;;21.20;75.60;;;;;;3972006;29;20043;-68
2022/07/10 10:56:45;;;;;;;4.00;2.20;;;21.20;75.30;;;;;;3971912;29;20055;-68
2022/07/10 10:59:07;;;;;;;0.17;0.17;;;21.20;75.60;;;;;;3957669;30;20062;-67
2022/07/10 11:01:31;;;;;;;0.82;0.82;;;21.20;75.70;;;;;;3957907;30;20051;-68
2022/07/10 11:04:19;;;;;;;0.65;0.65;;;21.20;75.60;;;;;;3956441;30;20401;-68
2022/07/10 11:06:42;;;;;;;1.33;1.33;;;21.30;75.70;;;;;;3971266;29;20143;-68
2022/07/10 11:09:22;;;;;;;3.60;0.57;;;21.30;75.90;;;;;;3972282;29;20050;-68
2022/07/10 11:11:45;;;;;;;0.20;0.20;;;21.20;76.00;;;;;;3968204;29;20091;-69
2022/07/10 11:14:12;;;;;;;0.80;0.77;;;21.20;76.10;;;;;;3966529;29;20142;-69
2022/07/10 11:16:34;;;;;;;1.45;1.35;;;21.20;76.10;;;;;;3972529;29;20065;-69
2022/07/10 11:19:03;;;;;;;2.10;1.98;;;21.20;76.10;;;;;;3958228;29;20150;-68
2022/07/10 11:21:26;;;;;;;0.32;0.32;;;21.20;76.20;;;;;;3972912;29;20503;-68
2022/07/10 11:23:58;;;;;;;4.38;0.63;;;21.20;76.20;;;;;;3970045;29;20070;-68
2022/07/10 11:26:29;;;;;;;0.52;0.52;;;21.20;76.20;;;;;;3957514;30;20047;-68
2022/07/10 11:28:53;;;;;;;;;;;21.20;77.10;;;;;;3957625;30;20066;-68
2022/07/10 11:31:15;;;;;;;8.27;2.03;;;21.20;76.10;;;;;;3957422;30;19930;-68
2022/07/10 11:33:43;;;;;;;5.13;2.78;;;21.20;76.10;;;;;;3947942;29;20109;-68
2022/07/10 11:36:13;;;;;;;2.05;1.95;;;21.20;76.00;;;;;;3972294;29;20054;-69
2022/07/10 11:38:35;;;;;;;0.65;0.65;;;21.20;76.10;;;;;;3963697;29;20065;-68
2022/07/10 11:40:57;;;;;;;1.27;1.17;;;21.20;76.00;;;;;;3971951;29;20107;-66
2022/07/10 11:43:23;;;;;;;0.95;0.95;;;21.20;76.90;;;;;;3970967;29;20194;-68
2022/07/10 11:45:45;;;;;;;1.55;1.45;;;21.20;75.90;;;;;;3957162;30;20047;-67
2022/07/10 11:48:08;;;;;;;1.90;1.08;;;21.20;75.90;;;;;;3972034;29;20107;-67
2022/07/10 11:50:37;;;;;;;0.40;0.40;;;21.20;75.80;;;;;;3971643;29;20451;-67
2022/07/10 11:52:59;;;;;;;0.15;0.15;;;21.20;75.80;;;;;;3971839;29;20119;-67
2022/07/10 11:55:23;;;;;;;0.50;0.50;;;21.20;75.80;;;;;;3957022;30;20055;-67
2022/07/10 11:57:48;;;;;;;0.55;0.55;;;21.20;76.60;;;;;;3944224;30;20075;-68
2022/07/10 12:00:23;;;;;;;4.38;1.75;;;21.20;75.60;;;;;;3943482;30;20063;-66
2022/07/10 12:02:45;;;;;;;1.27;0.73;;;21.20;75.70;;;;;;3956986;30;20063;-67
2022/07/10 12:05:08;;;;;;;3.90;3.53;;;21.20;75.90;;;;;;3957781;29;20113;-63
2022/07/10 12:07:31;;;;;;;0.77;0.77;;;21.20;76.30;;;;;;3957871;29;20435;-65
2022/07/10 12:09:54;;;;;;;0.22;0.22;;;21.30;76.40;;;;;;3971850;29;20078;-63
2022/07/10 12:12:16;;;;;;;0.90;0.90;;;21.30;76.60;;;;;;3957644;29;20135;-64
2022/07/10 12:14:39;;;;;;;2.08;1.88;;;21.30;76.60;;;;;;3970854;29;20058;-63
2022/07/10 12:17:12;;;;;;;2.13;2.03;;;21.30;76.60;;;;;;3971714;29;20084;-63
2022/07/10 12:19:39;;;;;;;2.03;1.20;;;21.30;76.50;;;;;;3957374;29;20466;-63
2022/07/10 12:22:01;;;;;;;1.08;1.08;;;21.20;76.60;;;;;;3970033;29;20100;-63
2022/07/10 12:24:26;;;;;;;0.38;0.38;;;21.30;76.70;;;;;;3971209;29;20061;-63
2022/07/10 12:26:48;;;;;;;0.30;0.30;;;21.20;76.60;;;;;;3971021;29;20571;-63
2022/07/10 12:29:19;;;;;;;0.93;0.90;;;21.20;76.60;;;;;;3968847;29;20555;-64
2022/07/10 12:31:44;;;;;;;0.10;0.10;;;21.20;76.60;;;;;;3970957;29;20055;-64
2022/07/10 12:34:07;;;;;;;0.47;0.47;;;21.20;76.60;;;;;;3971131;29;20123;-63
2022/07/10 12:36:45;;;;;;;0.00;0.00;;;21.20;76.60;;;;;;3970441;29;20065;-64
2022/07/10 12:39:07;;;;;;;0.00;0.00;;;21.20;76.70;;;;;;3963071;29;20069;-63
2022/07/10 12:41:30;;;;;;;1.67;0.55;;;21.20;76.50;;;;;;3956464;29;20052;-63